createdAt,value
2023-05-12T00:00:03.373Z,12.14
2023-05-12T00:01:03.463Z,12.13
2023-05-12T00:02:03.414Z,12.12
2023-05-12T00:03:03.459Z,12.12
2023-05-12T00:04:03.585Z,12.13
2023-05-12T00:05:03.534Z,12.15
2023-05-12T00:06:03.572Z,12.17
2023-05-12T00:07:03.522Z,12.17
2023-05-12T00:08:03.576Z,12.16
2023-05-12T00:09:03.585Z,12.15
2023-05-12T00:10:03.709Z,12.13
2023-05-12T00:11:03.632Z,12.12
2023-05-12T00:12:03.659Z,12.11
2023-05-12T00:13:03.686Z,12.10
2023-05-12T00:14:03.715Z,12.10
2023-05-12T00:15:03.750Z,12.10
2023-05-12T00:16:03.825Z,12.09
2023-05-12T00:17:03.786Z,12.10
2023-05-12T00:18:03.885Z,12.08
2023-05-12T00:19:03.946Z,12.05
2023-05-12T00:20:03.857Z,12.03
2023-05-12T00:21:03.877Z,11.99
2023-05-12T00:22:03.879Z,11.97
2023-05-12T00:23:03.894Z,11.94
2023-05-12T00:24:03.930Z,11.94
2023-05-12T00:25:03.961Z,11.92
2023-05-12T00:26:03.974Z,11.91
2023-05-12T00:27:04.010Z,11.91
2023-05-12T00:28:04.038Z,11.90
2023-05-12T00:29:04.049Z,11.83
2023-05-12T00:30:04.077Z,11.81
2023-05-12T00:31:04.204Z,11.79
2023-05-12T00:32:04.186Z,11.82
2023-05-12T00:33:04.154Z,11.86
2023-05-12T00:34:04.180Z,11.89
2023-05-12T00:35:04.184Z,11.90
2023-05-12T00:36:04.208Z,11.91
2023-05-12T00:37:04.240Z,11.92
2023-05-12T00:38:04.238Z,11.92
2023-05-12T00:39:04.269Z,11.93
2023-05-12T00:40:04.285Z,11.92
2023-05-12T00:41:04.304Z,11.94
2023-05-12T00:42:04.335Z,11.95
2023-05-12T00:43:04.362Z,11.95
2023-05-12T00:44:05.250Z,11.96
2023-05-12T00:45:04.392Z,11.96
2023-05-12T00:46:04.478Z,11.98
2023-05-12T00:47:04.440Z,11.98
2023-05-12T00:48:04.524Z,12.00
2023-05-12T00:49:04.496Z,12.02
2023-05-12T00:50:04.517Z,12.03
2023-05-12T00:51:04.551Z,12.03
2023-05-12T00:52:04.592Z,12.03
2023-05-12T00:53:04.618Z,12.04
2023-05-12T00:54:04.661Z,12.04
2023-05-12T00:55:04.664Z,12.04
2023-05-12T00:56:04.688Z,12.05
2023-05-12T00:57:04.751Z,12.05
2023-05-12T00:58:04.759Z,12.04
2023-05-12T00:59:04.781Z,12.04
2023-05-12T01:00:04.803Z,12.04
2023-05-12T01:01:04.834Z,12.03
2023-05-12T01:02:04.849Z,12.02
2023-05-12T01:03:04.972Z,12.03
2023-05-12T01:04:04.855Z,12.02
2023-05-12T01:05:04.851Z,12.02
2023-05-12T01:06:04.864Z,12.04
2023-05-12T01:07:04.874Z,12.04
2023-05-12T01:08:04.894Z,12.01
2023-05-12T01:09:04.913Z,12.01
2023-05-12T01:10:05.026Z,12.02
2023-05-12T01:11:04.954Z,12.00
2023-05-12T01:12:04.970Z,11.98
2023-05-12T01:13:04.981Z,11.98
2023-05-12T01:14:05.004Z,12.00
2023-05-12T01:15:05.014Z,12.00
2023-05-12T01:16:05.032Z,12.01
2023-05-12T01:17:05.090Z,12.00
2023-05-12T01:18:05.066Z,12.00
2023-05-12T01:19:05.096Z,11.99
2023-05-12T01:20:05.089Z,11.99
2023-05-12T01:21:05.107Z,11.98
2023-05-12T01:22:05.143Z,11.99
2023-05-12T01:23:05.167Z,12.00
2023-05-12T01:24:05.198Z,12.02
2023-05-12T01:25:05.244Z,12.01
2023-05-12T01:26:05.269Z,12.00
2023-05-12T01:27:05.255Z,12.00
2023-05-12T01:28:05.300Z,12.02
2023-05-12T01:29:05.320Z,12.03
2023-05-12T01:30:05.347Z,12.04
2023-05-12T01:31:05.432Z,12.06
2023-05-12T01:32:05.401Z,12.07
2023-05-12T01:33:05.455Z,12.08
2023-05-12T01:34:05.436Z,12.07
2023-05-12T01:35:05.466Z,12.09
2023-05-12T01:36:05.490Z,12.09
2023-05-12T01:37:05.494Z,12.09
2023-05-12T01:38:05.529Z,12.11
2023-05-12T01:39:05.558Z,12.11
2023-05-12T01:40:05.583Z,12.11
2023-05-12T01:41:05.617Z,12.09
2023-05-12T01:42:05.605Z,12.05
2023-05-12T01:43:05.639Z,12.02
2023-05-12T01:44:05.692Z,12.04
2023-05-12T01:45:05.679Z,12.04
2023-05-12T01:46:05.736Z,12.01
2023-05-12T01:47:05.741Z,11.98
2023-05-12T01:48:05.823Z,11.96
2023-05-12T01:49:05.736Z,11.96
2023-05-12T01:50:05.753Z,11.94
2023-05-12T01:51:05.782Z,11.94
2023-05-12T01:52:05.809Z,11.94
2023-05-12T01:53:05.827Z,11.93
2023-05-12T01:54:05.837Z,11.94
2023-05-12T01:55:05.853Z,11.97
2023-05-12T01:56:05.890Z,11.98
2023-05-12T01:57:05.911Z,11.98
2023-05-12T01:58:05.925Z,11.98
2023-05-12T01:59:06.017Z,11.97
2023-05-12T02:00:05.991Z,11.98
2023-05-12T02:01:06.021Z,11.96
2023-05-12T02:02:06.080Z,11.94
2023-05-12T02:03:06.092Z,11.93
2023-05-12T02:04:06.229Z,11.94
2023-05-12T02:05:06.099Z,11.94
2023-05-12T02:06:06.140Z,11.92
2023-05-12T02:07:06.174Z,11.94
2023-05-12T02:08:06.197Z,11.96
2023-05-12T02:09:06.214Z,11.95
2023-05-12T02:10:06.238Z,11.92
2023-05-12T02:11:06.267Z,11.92
2023-05-12T02:12:06.290Z,11.91
2023-05-12T02:13:06.321Z,11.91
2023-05-12T02:14:06.340Z,11.91
2023-05-12T02:15:06.347Z,11.92
2023-05-12T02:16:06.390Z,11.91
2023-05-12T02:17:06.377Z,11.90
2023-05-12T02:18:06.489Z,11.90
2023-05-12T02:19:06.581Z,11.91
2023-05-12T02:20:06.466Z,11.93
2023-05-12T02:21:06.473Z,11.95
2023-05-12T02:22:06.491Z,11.96
2023-05-12T02:23:06.527Z,11.98
2023-05-12T02:24:06.561Z,11.99
2023-05-12T02:25:06.614Z,11.99
2023-05-12T02:26:06.636Z,11.99
2023-05-12T02:27:06.677Z,11.99
2023-05-12T02:28:06.694Z,11.99
2023-05-12T02:29:06.733Z,12.00
2023-05-12T02:30:06.798Z,12.02
2023-05-12T02:31:06.841Z,12.02
2023-05-12T02:32:06.962Z,12.00
2023-05-12T02:33:06.956Z,12.03
2023-05-12T02:34:06.978Z,12.01
2023-05-12T02:35:07.013Z,12.01
2023-05-12T02:36:07.078Z,12.00
2023-05-12T02:37:07.105Z,11.99
2023-05-12T02:38:07.141Z,12.00
2023-05-12T02:39:07.199Z,11.99
2023-05-12T02:40:07.221Z,12.00
2023-05-12T02:41:07.322Z,11.99
2023-05-12T02:42:07.298Z,12.00
2023-05-12T02:43:07.346Z,12.00
2023-05-12T02:44:07.394Z,12.01
2023-05-12T02:45:07.439Z,11.99
2023-05-12T02:46:07.539Z,11.98
2023-05-12T02:47:07.553Z,11.96
2023-05-12T02:48:07.631Z,11.96
2023-05-12T02:49:07.625Z,11.97
2023-05-12T02:50:07.670Z,11.98
2023-05-12T02:51:07.718Z,11.97
2023-05-12T02:52:07.774Z,11.97
2023-05-12T02:53:07.793Z,11.96
2023-05-12T02:54:07.837Z,11.95
2023-05-12T02:55:07.850Z,11.95
2023-05-12T02:56:07.891Z,11.97
2023-05-12T02:57:07.912Z,11.97
2023-05-12T02:58:07.929Z,11.97
2023-05-12T02:59:07.949Z,11.97
2023-05-12T03:00:07.988Z,11.96
2023-05-12T03:01:11.100Z,11.97
2023-05-12T03:02:08.096Z,11.98
2023-05-12T03:03:08.194Z,11.95
2023-05-12T03:04:08.022Z,11.94
2023-05-12T03:05:08.036Z,11.92
2023-05-12T03:06:08.046Z,11.92
2023-05-12T03:07:08.051Z,11.91
2023-05-12T03:08:08.063Z,11.90
2023-05-12T03:09:08.087Z,11.91
2023-05-12T03:10:08.094Z,11.93
2023-05-12T03:11:08.103Z,11.95
2023-05-12T03:12:08.115Z,11.96
2023-05-12T03:13:08.125Z,11.97
2023-05-12T03:14:08.141Z,11.98
2023-05-12T03:15:08.152Z,11.97
2023-05-12T03:16:08.157Z,11.94
2023-05-12T03:17:08.287Z,11.88
2023-05-12T03:18:08.237Z,11.86
2023-05-12T03:19:08.245Z,11.89
2023-05-12T03:20:08.213Z,11.90
2023-05-12T03:21:08.220Z,11.89
2023-05-12T03:22:08.250Z,11.90
2023-05-12T03:23:08.265Z,11.91
2023-05-12T03:24:08.267Z,11.92
2023-05-12T03:25:08.293Z,11.92
2023-05-12T03:26:08.292Z,11.92
2023-05-12T03:27:08.327Z,11.92
2023-05-12T03:28:08.339Z,11.91
2023-05-12T03:29:08.355Z,11.90
2023-05-12T03:30:08.366Z,11.88
2023-05-12T03:31:08.415Z,11.87
2023-05-12T03:32:08.401Z,11.88
2023-05-12T03:33:08.413Z,11.88
2023-05-12T03:34:08.428Z,11.87
2023-05-12T03:35:08.441Z,11.87
2023-05-12T03:36:08.445Z,11.85
2023-05-12T03:37:08.459Z,11.85
2023-05-12T03:38:09.485Z,11.84
2023-05-12T03:39:08.491Z,11.85
2023-05-12T03:40:08.525Z,11.87
2023-05-12T03:41:08.536Z,11.86
2023-05-12T03:42:08.549Z,11.84
2023-05-12T03:43:08.553Z,11.83
2023-05-12T03:44:08.573Z,11.83
2023-05-12T03:45:08.594Z,11.81
2023-05-12T03:46:08.635Z,11.82
2023-05-12T03:47:08.713Z,11.81
2023-05-12T03:48:08.672Z,11.84
2023-05-12T03:49:08.629Z,11.83
2023-05-12T03:50:08.672Z,11.84
2023-05-12T03:51:08.664Z,11.82
2023-05-12T03:52:08.683Z,11.81
2023-05-12T03:53:08.701Z,11.79
2023-05-12T03:54:08.752Z,11.77
2023-05-12T03:55:09.749Z,11.77
2023-05-12T03:56:08.870Z,11.76
2023-05-12T03:57:08.959Z,11.75
2023-05-12T03:58:08.997Z,11.75
2023-05-12T03:59:09.056Z,11.75
2023-05-12T04:00:09.152Z,11.76
2023-05-12T04:01:09.225Z,11.77
2023-05-12T04:02:09.357Z,11.71
2023-05-12T04:03:09.413Z,11.69
2023-05-12T04:04:09.505Z,11.71
2023-05-12T04:05:09.564Z,11.72
2023-05-12T04:06:09.632Z,11.72
2023-05-12T04:07:09.704Z,11.73
2023-05-12T04:08:09.782Z,11.72
2023-05-12T04:09:09.849Z,11.68
2023-05-12T04:10:09.923Z,11.64
2023-05-12T04:11:09.971Z,11.65
2023-05-12T04:12:10.032Z,11.66
2023-05-12T04:13:10.072Z,11.67
2023-05-12T04:14:10.127Z,11.69
2023-05-12T04:15:10.174Z,11.71
2023-05-12T04:16:10.276Z,11.71
2023-05-12T04:17:10.263Z,11.72
2023-05-12T04:18:10.315Z,11.72
2023-05-12T04:19:10.391Z,11.72
2023-05-12T04:20:10.398Z,11.74
2023-05-12T04:21:10.427Z,11.75
2023-05-12T04:22:10.492Z,11.73
2023-05-12T04:23:10.545Z,11.71
2023-05-12T04:24:10.590Z,11.72
2023-05-12T04:25:10.644Z,11.73
2023-05-12T04:26:10.687Z,11.75
2023-05-12T04:27:10.749Z,11.77
2023-05-12T04:28:12.187Z,11.78
2023-05-12T04:29:10.869Z,11.77
2023-05-12T04:30:10.935Z,11.78
2023-05-12T04:31:10.991Z,11.80
2023-05-12T04:32:11.118Z,11.82
2023-05-12T04:33:11.205Z,11.84
2023-05-12T04:34:11.208Z,11.85
2023-05-12T04:35:11.285Z,11.85
2023-05-12T04:36:11.374Z,11.84
2023-05-12T04:37:11.456Z,11.82
2023-05-12T04:38:11.531Z,11.80
2023-05-12T04:39:11.584Z,11.81
2023-05-12T04:40:11.676Z,11.81
2023-05-12T04:41:11.720Z,11.82
2023-05-12T04:42:11.794Z,11.83
2023-05-12T04:43:59.923Z,11.83
2023-05-12T04:44:12.836Z,11.84
2023-05-12T04:45:11.855Z,11.79
2023-05-12T04:46:11.913Z,11.79
2023-05-12T04:47:11.889Z,11.82
2023-05-12T04:48:11.908Z,11.81
2023-05-12T04:49:11.930Z,11.82
2023-05-12T04:50:11.950Z,11.84
2023-05-12T04:51:11.955Z,11.85
2023-05-12T04:52:11.971Z,11.85
2023-05-12T04:53:11.989Z,11.87
2023-05-12T04:54:12.015Z,11.88
2023-05-12T04:55:12.037Z,11.90
2023-05-12T04:56:12.048Z,11.92
2023-05-12T04:57:12.080Z,11.94
2023-05-12T04:58:12.085Z,11.95
2023-05-12T04:59:12.129Z,11.96
2023-05-12T05:00:12.190Z,11.96
2023-05-12T05:01:12.303Z,11.96
2023-05-12T05:02:12.295Z,11.97
2023-05-12T05:03:12.404Z,11.97
2023-05-12T05:04:12.366Z,11.97
2023-05-12T05:05:12.521Z,11.98
2023-05-12T05:06:12.475Z,12.00
2023-05-12T05:07:12.511Z,12.01
2023-05-12T05:08:12.541Z,12.03
2023-05-12T05:09:12.593Z,12.05
2023-05-12T05:10:12.638Z,12.06
2023-05-12T05:11:12.688Z,12.09
2023-05-12T05:12:12.735Z,12.09
2023-05-12T05:13:12.825Z,12.09
2023-05-12T05:14:12.834Z,12.09
2023-05-12T05:15:12.896Z,12.08
2023-05-12T05:16:13.004Z,12.08
2023-05-12T05:17:12.966Z,12.08
2023-05-12T05:18:13.038Z,12.10
2023-05-12T05:19:21.414Z,12.11
2023-05-12T05:20:15.467Z,12.11
2023-05-12T05:21:13.280Z,12.11
2023-05-12T05:22:13.255Z,12.11
2023-05-12T05:23:13.292Z,12.12
2023-05-12T05:24:13.317Z,12.11
2023-05-12T05:25:13.340Z,12.12
2023-05-12T05:26:13.393Z,12.14
2023-05-12T05:27:13.438Z,12.14
2023-05-12T05:28:13.534Z,12.17
2023-05-12T05:29:13.556Z,12.17
2023-05-12T05:30:13.959Z,12.16
2023-05-12T05:31:13.679Z,12.16
2023-05-12T05:32:13.717Z,12.16
2023-05-12T05:33:13.770Z,12.17
2023-05-12T05:34:13.861Z,12.17
2023-05-12T05:35:13.890Z,12.18
2023-05-12T05:36:13.941Z,12.18
2023-05-12T05:37:14.057Z,12.19
2023-05-12T05:38:14.030Z,12.19
2023-05-12T05:39:14.096Z,12.20
2023-05-12T05:40:14.288Z,12.18
2023-05-12T05:41:15.189Z,12.18
2023-05-12T05:42:14.336Z,12.19
2023-05-12T05:43:14.420Z,12.18
2023-05-12T05:44:14.827Z,12.17
2023-05-12T05:45:14.850Z,12.15
2023-05-12T05:46:14.711Z,12.15
2023-05-12T05:47:14.820Z,12.16
2023-05-12T05:48:14.819Z,12.16
2023-05-12T05:49:14.889Z,12.17
2023-05-12T05:50:15.773Z,12.18
2023-05-12T05:51:15.441Z,12.19
2023-05-12T05:52:15.122Z,12.22
2023-05-12T05:53:15.668Z,12.23
2023-05-12T05:54:15.229Z,12.25
2023-05-12T05:55:15.502Z,12.26
2023-05-12T05:56:15.390Z,12.28
2023-05-12T05:57:15.441Z,12.30
2023-05-12T05:58:15.473Z,12.30
2023-05-12T05:59:16.993Z,12.30
2023-05-12T06:00:15.647Z,12.32
2023-05-12T06:01:15.514Z,12.36
2023-05-12T06:02:15.792Z,12.38
2023-05-12T06:03:15.584Z,12.39
2023-05-12T06:04:15.583Z,12.37
2023-05-12T06:05:15.723Z,12.36
2023-05-12T06:06:16.555Z,12.39
2023-05-12T06:07:15.566Z,12.43
2023-05-12T06:08:15.830Z,12.46
2023-05-12T06:09:15.690Z,12.47
2023-05-12T06:10:15.617Z,12.48
2023-05-12T06:11:17.675Z,12.48
2023-05-12T06:12:15.657Z,12.47
2023-05-12T06:13:15.652Z,12.46
2023-05-12T06:14:15.642Z,12.45
2023-05-12T06:15:15.803Z,12.48
2023-05-12T06:16:15.868Z,12.51
2023-05-12T06:17:15.829Z,12.54
2023-05-12T06:18:15.866Z,12.53
2023-05-12T06:19:15.896Z,12.54
2023-05-12T06:20:15.877Z,12.58
2023-05-12T06:21:15.897Z,12.52
2023-05-12T06:22:15.920Z,12.55
2023-05-12T06:23:15.939Z,12.60
2023-05-12T06:24:15.947Z,12.63
2023-05-12T06:25:15.952Z,12.68
2023-05-12T06:26:16.787Z,12.70
2023-05-12T06:27:15.948Z,12.72
2023-05-12T06:28:15.968Z,12.74
2023-05-12T06:29:15.963Z,12.74
2023-05-12T06:30:16.446Z,12.69
2023-05-12T06:31:16.894Z,12.70
2023-05-12T06:32:16.161Z,12.72
2023-05-12T06:33:16.243Z,12.73
2023-05-12T06:34:16.290Z,12.75
2023-05-12T06:35:16.181Z,12.75
2023-05-12T06:36:16.222Z,12.79
2023-05-12T06:37:16.120Z,12.82
2023-05-12T06:38:16.132Z,12.84
2023-05-12T06:39:16.744Z,12.83
2023-05-12T06:40:16.138Z,12.83
2023-05-12T06:41:17.289Z,12.86
2023-05-12T06:42:16.164Z,12.89
2023-05-12T06:43:16.135Z,12.91
2023-05-12T06:44:16.229Z,12.94
2023-05-12T06:45:16.354Z,12.97
2023-05-12T06:46:16.176Z,12.94
2023-05-12T06:47:16.149Z,12.97
2023-05-12T06:48:16.371Z,12.96
2023-05-12T06:49:16.190Z,12.98
2023-05-12T06:50:16.796Z,13.05
2023-05-12T06:51:16.137Z,13.09
2023-05-12T06:52:16.138Z,13.13
2023-05-12T06:53:16.206Z,13.16
2023-05-12T06:54:16.311Z,13.19
2023-05-12T06:55:16.326Z,13.23
2023-05-12T06:56:16.385Z,13.28
2023-05-12T06:57:16.519Z,13.33
2023-05-12T06:58:16.549Z,13.37
2023-05-12T06:59:16.569Z,13.38
2023-05-12T07:00:16.630Z,13.42
2023-05-12T07:01:17.327Z,13.45
2023-05-12T07:02:16.775Z,13.49
2023-05-12T07:03:16.946Z,13.53
2023-05-12T07:04:16.913Z,13.56
2023-05-12T07:05:16.972Z,13.54
2023-05-12T07:06:17.088Z,13.56
2023-05-12T07:07:17.092Z,13.59
2023-05-12T07:08:17.177Z,13.64
2023-05-12T07:09:17.206Z,13.69
2023-05-12T07:10:17.252Z,13.72
2023-05-12T07:11:17.309Z,13.76
2023-05-12T07:12:17.389Z,13.82
2023-05-12T07:13:18.320Z,13.87
2023-05-12T07:14:17.498Z,13.91
2023-05-12T07:15:17.625Z,13.96
2023-05-12T07:16:17.654Z,14.01
2023-05-12T07:17:17.666Z,14.06
2023-05-12T07:18:17.747Z,14.04
2023-05-12T07:19:17.822Z,14.07
2023-05-12T07:20:17.861Z,14.06
2023-05-12T07:21:17.932Z,14.06
2023-05-12T07:22:17.992Z,14.14
2023-05-12T07:23:18.121Z,14.19
2023-05-12T07:24:18.724Z,14.08
2023-05-12T07:25:19.157Z,14.00
2023-05-12T07:26:18.420Z,13.85
2023-05-12T07:27:18.292Z,13.84
2023-05-12T07:28:18.203Z,13.86
2023-05-12T07:29:18.194Z,13.90
2023-05-12T07:30:18.226Z,13.93
2023-05-12T07:31:18.266Z,13.90
2023-05-12T07:32:18.281Z,13.90
2023-05-12T07:33:18.420Z,13.92
2023-05-12T07:34:18.430Z,13.95
2023-05-12T07:35:18.700Z,13.95
2023-05-12T07:36:19.702Z,13.91
2023-05-12T07:37:18.506Z,13.88
2023-05-12T07:38:18.861Z,13.89
2023-05-12T07:39:18.489Z,13.93
2023-05-12T07:40:18.505Z,13.98
2023-05-12T07:41:19.596Z,14.06
2023-05-12T07:42:18.483Z,14.13
2023-05-12T07:43:18.475Z,14.20
2023-05-12T07:44:18.471Z,14.22
2023-05-12T07:45:19.659Z,14.24
2023-05-12T07:46:18.458Z,14.30
2023-05-12T07:47:18.492Z,14.32
2023-05-12T07:48:19.314Z,14.30
2023-05-12T07:49:18.456Z,14.29
2023-05-12T07:50:18.401Z,14.27
2023-05-12T07:51:18.401Z,14.28
2023-05-12T07:52:18.382Z,14.22
2023-05-12T07:53:18.388Z,14.19
2023-05-12T07:54:18.424Z,14.15
2023-05-12T07:55:18.760Z,14.09
2023-05-12T07:56:24.324Z,14.12
2023-05-12T07:57:18.436Z,14.24
2023-05-12T07:58:18.469Z,14.34
2023-05-12T07:59:18.400Z,14.35
2023-05-12T08:00:18.410Z,14.25
2023-05-12T08:01:18.387Z,14.20
2023-05-12T08:02:18.462Z,14.35
2023-05-12T08:03:18.403Z,14.46
2023-05-12T08:04:18.386Z,14.54
2023-05-12T08:05:18.487Z,14.63
2023-05-12T08:06:18.275Z,14.71
2023-05-12T08:07:18.268Z,14.80
2023-05-12T08:08:18.281Z,14.94
2023-05-12T08:09:18.183Z,15.03
2023-05-12T08:10:18.161Z,15.08
2023-05-12T08:11:18.121Z,15.16
2023-05-12T08:12:18.128Z,15.18
2023-05-12T08:13:18.081Z,15.09
2023-05-12T08:14:18.043Z,15.11
2023-05-12T08:15:18.263Z,15.15
2023-05-12T08:16:18.016Z,15.20
2023-05-12T08:17:17.978Z,15.22
2023-05-12T08:18:17.944Z,15.15
2023-05-12T08:19:17.894Z,15.20
2023-05-12T08:20:17.825Z,15.26
2023-05-12T08:21:17.821Z,15.28
2023-05-12T08:22:17.752Z,15.14
2023-05-12T08:23:17.800Z,15.03
2023-05-12T08:24:17.694Z,15.10
2023-05-12T08:25:17.831Z,15.05
2023-05-12T08:26:17.633Z,15.23
2023-05-12T08:27:19.235Z,15.40
2023-05-12T08:28:17.600Z,15.42
2023-05-12T08:29:17.475Z,15.42
2023-05-12T08:30:17.421Z,15.37
2023-05-12T08:31:17.396Z,15.35
2023-05-12T08:32:17.525Z,15.35
2023-05-12T08:33:18.235Z,15.51
2023-05-12T08:34:17.307Z,15.55
2023-05-12T08:35:17.235Z,15.62
2023-05-12T08:36:17.167Z,15.67
2023-05-12T08:37:17.120Z,15.64
2023-05-12T08:38:17.280Z,15.57
2023-05-12T08:39:17.050Z,15.54
2023-05-12T08:40:17.354Z,15.54
2023-05-12T08:41:16.988Z,15.56
2023-05-12T08:42:17.018Z,15.55
2023-05-12T08:43:17.300Z,15.61
2023-05-12T08:44:16.903Z,15.64
2023-05-12T08:45:17.877Z,15.65
2023-05-12T08:46:16.870Z,15.65
2023-05-12T08:47:16.851Z,15.69
2023-05-12T08:48:16.932Z,15.72
2023-05-12T08:49:16.752Z,15.69
2023-05-12T08:50:16.737Z,15.74
2023-05-12T08:51:16.752Z,15.79
2023-05-12T08:52:16.705Z,15.84
2023-05-12T08:53:16.737Z,15.94
2023-05-12T08:54:16.646Z,16.07
2023-05-12T08:55:16.612Z,16.16
2023-05-12T08:57:16.724Z,16.33
2023-05-12T08:58:16.534Z,16.29
2023-05-12T08:59:16.507Z,16.27
2023-05-12T09:00:16.417Z,16.27
2023-05-12T09:01:16.488Z,16.26
2023-05-12T09:02:16.564Z,16.26
2023-05-12T09:03:16.310Z,16.31
2023-05-12T09:04:16.361Z,16.34
2023-05-12T09:05:16.185Z,16.33
2023-05-12T09:06:16.142Z,16.37
2023-05-12T09:07:16.107Z,16.42
2023-05-12T09:08:16.053Z,16.48
2023-05-12T09:09:16.014Z,16.54
2023-05-12T09:10:29.838Z,16.59
2023-05-12T09:11:16.887Z,16.41
2023-05-12T09:12:16.854Z,16.18
2023-05-12T09:13:16.758Z,16.19
2023-05-12T09:14:15.846Z,16.27
2023-05-12T09:15:15.749Z,16.26
2023-05-12T09:16:15.740Z,16.35
2023-05-12T09:17:15.650Z,16.40
2023-05-12T09:18:15.607Z,16.51
2023-05-12T09:19:15.646Z,16.58
2023-05-12T09:20:30.467Z,16.61
2023-05-12T09:21:16.542Z,16.51
2023-05-12T09:22:15.445Z,16.28
2023-05-12T09:23:15.413Z,16.17
2023-05-12T09:24:15.354Z,16.13
2023-05-12T09:25:15.357Z,16.23
2023-05-12T09:26:15.294Z,16.34
2023-05-12T09:27:15.236Z,16.43
2023-05-12T09:28:15.199Z,16.51
2023-05-12T09:29:21.209Z,16.59
2023-05-12T09:30:16.122Z,16.65
2023-05-12T09:31:15.072Z,16.72
2023-05-12T09:32:14.978Z,16.78
2023-05-12T09:33:15.026Z,16.85
2023-05-12T09:34:14.879Z,16.94
2023-05-12T09:35:14.825Z,16.94
2023-05-12T09:36:14.755Z,16.92
2023-05-12T09:37:15.528Z,16.94
2023-05-12T09:38:14.758Z,16.93
2023-05-12T09:39:14.568Z,16.95
2023-05-12T09:40:14.534Z,17.00
2023-05-12T09:41:14.452Z,17.05
2023-05-12T09:42:14.371Z,17.01
2023-05-12T09:43:15.743Z,17.04
2023-05-12T09:44:14.280Z,17.03
2023-05-12T09:45:14.314Z,17.03
2023-05-12T09:46:14.224Z,17.07
2023-05-12T09:47:14.128Z,17.08
2023-05-12T09:48:14.374Z,17.09
2023-05-12T09:49:14.024Z,17.07
2023-05-12T09:50:15.776Z,17.04
2023-05-12T09:51:13.913Z,17.04
2023-05-12T09:52:14.176Z,17.04
2023-05-12T09:53:13.835Z,17.06
2023-05-12T09:54:13.796Z,17.08
2023-05-12T09:55:13.750Z,17.12
2023-05-12T09:56:13.711Z,17.10
2023-05-12T09:57:13.669Z,17.02
2023-05-12T09:58:13.652Z,17.10
2023-05-12T09:59:13.644Z,17.11
2023-05-12T10:00:29.766Z,17.08
2023-05-12T10:01:22.717Z,17.10
2023-05-12T10:02:14.482Z,17.14
2023-05-12T10:03:13.440Z,17.16
2023-05-12T10:04:13.439Z,17.14
2023-05-12T10:05:13.327Z,17.20
2023-05-12T10:06:13.218Z,17.17
2023-05-12T10:07:13.138Z,17.01
2023-05-12T10:08:13.107Z,16.95
2023-05-12T10:09:13.032Z,17.03
2023-05-12T10:10:12.986Z,17.10
2023-05-12T10:11:12.928Z,17.22
2023-05-12T10:12:12.869Z,17.25
2023-05-12T10:13:12.956Z,17.28
2023-05-12T10:14:12.735Z,17.27
2023-05-12T10:15:13.347Z,17.32
2023-05-12T10:16:12.639Z,17.29
2023-05-12T10:17:12.756Z,17.30
2023-05-12T10:18:12.494Z,17.36
2023-05-12T10:19:13.345Z,17.42
2023-05-12T10:20:12.351Z,17.50
2023-05-12T10:21:12.250Z,17.40
2023-05-12T10:22:12.239Z,17.32
2023-05-12T10:23:12.142Z,17.39
2023-05-12T10:24:12.088Z,17.47
2023-05-12T10:25:12.038Z,17.53
2023-05-12T10:26:11.972Z,17.58
2023-05-12T10:27:12.890Z,17.66
2023-05-12T10:28:11.942Z,17.70
2023-05-12T10:29:11.735Z,17.75
2023-05-12T10:30:11.681Z,17.80
2023-05-12T10:31:11.659Z,17.82
2023-05-12T10:32:11.631Z,17.79
2023-05-12T10:33:11.450Z,17.71
2023-05-12T10:34:11.410Z,17.75
2023-05-12T10:35:11.512Z,17.80
2023-05-12T10:36:11.254Z,17.81
2023-05-12T10:37:11.400Z,17.78
2023-05-12T10:38:11.198Z,17.77
2023-05-12T10:39:11.127Z,17.87
2023-05-12T10:40:11.030Z,17.87
2023-05-12T10:41:10.951Z,17.94
2023-05-12T10:42:10.918Z,17.99
2023-05-12T10:43:10.885Z,18.03
2023-05-12T10:44:10.888Z,18.09
2023-05-12T10:45:11.358Z,18.18
2023-05-12T10:46:10.861Z,18.16
2023-05-12T10:47:11.161Z,18.16
2023-05-12T10:48:11.476Z,18.18
2023-05-12T10:49:11.772Z,18.25
2023-05-12T10:50:10.820Z,18.41
2023-05-12T10:51:10.843Z,18.44
2023-05-12T10:52:10.778Z,18.51
2023-05-12T10:53:10.750Z,18.60
2023-05-12T10:54:10.757Z,18.65
2023-05-12T10:55:10.721Z,18.51
2023-05-12T10:56:10.871Z,18.29
2023-05-12T10:57:11.095Z,18.33
2023-05-12T10:58:11.381Z,18.41
2023-05-12T10:59:10.712Z,18.48
2023-05-12T11:00:10.941Z,18.49
2023-05-12T11:01:11.650Z,18.42
2023-05-12T11:02:11.660Z,18.34
2023-05-12T11:03:11.779Z,18.38
2023-05-12T11:04:10.610Z,18.35
2023-05-12T11:05:10.844Z,18.38
2023-05-12T11:06:10.753Z,18.39
2023-05-12T11:07:11.812Z,18.48
2023-05-12T11:08:11.581Z,18.55
2023-05-12T11:09:11.140Z,18.58
2023-05-12T11:10:10.710Z,18.60
2023-05-12T11:11:11.053Z,18.62
2023-05-12T11:12:10.163Z,18.67
2023-05-12T11:13:10.118Z,18.66
2023-05-12T11:14:10.786Z,18.69
2023-05-12T11:15:10.088Z,18.70
2023-05-12T11:16:10.095Z,18.75
2023-05-12T11:17:09.994Z,18.78
2023-05-12T11:18:10.053Z,18.69
2023-05-12T11:19:09.964Z,18.68
2023-05-12T11:20:09.998Z,18.68
2023-05-12T11:21:09.923Z,18.77
2023-05-12T11:22:09.842Z,18.88
2023-05-12T11:23:09.967Z,18.96
2023-05-12T11:24:12.918Z,19.01
2023-05-12T11:25:09.869Z,19.13
2023-05-12T11:26:09.743Z,19.27
2023-05-12T11:27:09.657Z,19.36
2023-05-12T11:28:09.591Z,19.42
2023-05-12T11:29:09.461Z,19.43
2023-05-12T11:30:09.580Z,19.34
2023-05-12T11:31:09.265Z,19.33
2023-05-12T11:32:09.366Z,19.37
2023-05-12T11:33:10.186Z,19.41
2023-05-12T11:34:13.055Z,19.44
2023-05-12T11:35:08.874Z,19.50
2023-05-12T11:36:08.793Z,19.46
2023-05-12T11:37:08.774Z,19.38
2023-05-12T11:38:08.705Z,19.41
2023-05-12T11:39:08.530Z,19.56
2023-05-12T11:40:08.433Z,19.62
2023-05-12T11:41:08.337Z,19.60
2023-05-12T11:42:12.955Z,19.54
2023-05-12T11:43:09.171Z,19.42
2023-05-12T11:44:08.121Z,19.47
2023-05-12T11:45:08.108Z,19.51
2023-05-12T11:46:07.927Z,19.44
2023-05-12T11:47:07.795Z,19.30
2023-05-12T11:48:07.908Z,19.30
2023-05-12T11:49:07.619Z,19.31
2023-05-12T11:50:07.576Z,19.35
2023-05-12T11:51:07.524Z,19.44
2023-05-12T11:52:07.543Z,19.45
2023-05-12T11:53:07.420Z,19.58
2023-05-12T11:54:07.207Z,19.47
2023-05-12T11:55:07.118Z,19.53
2023-05-12T11:56:07.023Z,19.58
2023-05-12T11:57:06.929Z,19.63
2023-05-12T11:58:06.935Z,19.52
2023-05-12T11:59:06.795Z,19.48
2023-05-12T12:00:06.816Z,19.49
2023-05-12T12:01:06.810Z,19.50
2023-05-12T12:02:06.844Z,19.45
2023-05-12T12:03:06.958Z,19.43
2023-05-12T12:04:07.231Z,19.42
2023-05-12T12:05:09.192Z,19.39
2023-05-12T12:06:06.998Z,19.40
2023-05-12T12:07:07.144Z,19.40
2023-05-12T12:08:06.860Z,19.40
2023-05-12T12:09:06.799Z,19.43
2023-05-12T12:10:06.713Z,19.46
2023-05-12T12:11:06.650Z,19.49
2023-05-12T12:12:06.546Z,19.48
2023-05-12T12:13:06.489Z,19.49
2023-05-12T12:14:06.369Z,19.51
2023-05-12T12:15:06.373Z,19.49
2023-05-12T12:16:06.396Z,19.49
2023-05-12T12:17:06.278Z,19.47
2023-05-12T12:18:06.294Z,19.46
2023-05-12T12:19:06.287Z,19.43
2023-05-12T12:20:06.150Z,19.42
2023-05-12T12:21:06.123Z,19.36
2023-05-12T12:22:05.920Z,19.34
2023-05-12T12:23:05.855Z,19.38
2023-05-12T12:24:05.782Z,19.33
2023-05-12T12:25:05.709Z,19.27
2023-05-12T12:26:05.709Z,19.23
2023-05-12T12:27:05.777Z,19.26
2023-05-12T12:28:05.542Z,19.29
2023-05-12T12:29:05.454Z,19.27
2023-05-12T12:30:05.412Z,19.22
2023-05-12T12:31:05.371Z,19.25
2023-05-12T12:32:05.300Z,19.21
2023-05-12T12:33:05.417Z,19.22
2023-05-12T12:34:05.435Z,19.24
2023-05-12T12:35:05.636Z,19.26
2023-05-12T12:36:05.789Z,19.25
2023-05-12T12:37:05.944Z,19.30
2023-05-12T12:38:06.048Z,19.35
2023-05-12T12:39:06.236Z,19.34
2023-05-12T12:40:06.373Z,19.36
2023-05-12T12:41:06.734Z,19.39
2023-05-12T12:42:06.794Z,19.44
2023-05-12T12:43:06.866Z,19.54
2023-05-12T12:44:06.978Z,19.55
2023-05-12T12:45:07.161Z,19.57
2023-05-12T12:46:07.322Z,19.58
2023-05-12T12:47:07.693Z,19.60
2023-05-12T12:48:07.756Z,19.61
2023-05-12T12:49:07.763Z,19.64
2023-05-12T12:50:07.950Z,19.68
2023-05-12T12:51:08.015Z,19.71
2023-05-12T12:52:08.077Z,19.73
2023-05-12T12:53:08.192Z,19.77